Time;durP1;ratioP1;P1;durP2;ratioP2;P2;SDS_P1;SDS_P2;PMS_P1;PMS_P2;Temp;Humidity;BMP_temperature;BMP_pressure;BME280_temperature;BME280_humidity;BME280_pressure;Samples;Min_cycle;Max_cycle;Signal;HPM_P1;HPM_P2
2023/08/01 00:01:58;;;;;;;2.77;2.20;;;18.00;99.90;;;;;;5057224;28;20547;-79
2023/08/01 00:04:25;;;;;;;2.97;2.67;;;17.90;99.90;;;;;;5059033;28;20473;-79
2023/08/01 00:06:52;;;;;;;2.80;2.43;;;17.90;99.90;;;;;;5057740;28;20452;-80
2023/08/01 00:09:18;;;;;;;3.70;2.40;;;17.80;99.90;;;;;;5059208;28;20458;-79
2023/08/01 00:11:45;;;;;;;2.73;2.33;;;17.70;99.90;;;;;;5058505;28;21017;-80
2023/08/01 00:14:13;;;;;;;2.40;2.10;;;17.60;99.90;;;;;;5059684;28;20466;-80
2023/08/01 00:16:40;;;;;;;3.00;2.03;;;17.60;99.90;;;;;;5058680;28;20515;-80
2023/08/01 00:19:07;;;;;;;3.03;2.13;;;17.60;99.90;;;;;;5060860;28;20515;-78
2023/08/01 00:21:34;;;;;;;3.80;2.33;;;17.50;99.90;;;;;;5066749;28;20557;-78
2023/08/01 00:24:00;;;;;;;3.03;2.47;;;17.50;99.90;;;;;;5056541;28;20558;-78
2023/08/01 00:26:27;;;;;;;10.23;2.53;;;17.50;99.90;;;;;;5053643;28;20451;-77
2023/08/01 00:28:54;;;;;;;3.40;2.00;;;17.50;99.90;;;;;;5054432;28;20497;-77
2023/08/01 00:31:22;;;;;;;2.30;2.10;;;17.40;99.90;;;;;;5053621;28;20481;-77
2023/08/01 00:33:49;;;;;;;3.10;2.30;;;17.40;99.90;;;;;;5053992;28;20440;-77
2023/08/01 00:36:16;;;;;;;2.03;1.40;;;17.40;99.90;;;;;;5052903;28;20454;-77
2023/08/01 00:38:43;;;;;;;2.80;1.50;;;17.40;99.90;;;;;;5053325;28;20968;-77
2023/08/01 00:41:10;;;;;;;2.90;1.40;;;17.30;99.90;;;;;;5053835;28;20503;-76
2023/08/01 00:43:37;;;;;;;2.77;1.70;;;17.30;99.90;;;;;;5054011;28;20447;-77
2023/08/01 00:46:05;;;;;;;3.37;1.57;;;17.30;99.90;;;;;;5052663;28;20813;-76
2023/08/01 00:48:34;;;;;;;2.90;1.90;;;17.20;99.90;;;;;;5052692;28;20488;-77
2023/08/01 00:51:05;;;;;;;2.00;1.20;;;17.20;99.90;;;;;;5053434;28;20494;-77
2023/08/01 00:53:32;;;;;;;2.40;1.43;;;17.20;99.90;;;;;;5053118;28;20622;-77
2023/08/01 00:56:00;;;;;;;2.27;1.63;;;17.20;99.90;;;;;;5052243;28;20985;-77
2023/08/01 00:58:27;;;;;;;2.70;1.47;;;17.20;99.90;;;;;;5052825;28;20462;-76
2023/08/01 01:00:55;;;;;;;2.40;1.53;;;17.30;99.90;;;;;;5052858;28;20566;-77
2023/08/01 01:03:22;;;;;;;2.00;1.60;;;17.30;99.90;;;;;;5053390;28;20567;-78
2023/08/01 01:05:57;;;;;;;3.30;2.27;;;17.30;99.90;;;;;;5052137;28;20519;-77
2023/08/01 01:08:24;;;;;;;4.33;2.47;;;17.20;99.90;;;;;;5053061;28;20493;-77
2023/08/01 01:10:50;;;;;;;2.63;2.00;;;17.20;99.90;;;;;;5052679;28;20476;-76
2023/08/01 01:13:17;;;;;;;2.17;1.70;;;17.30;99.90;;;;;;5053764;28;20473;-77
2023/08/01 01:15:44;;;;;;;2.63;1.87;;;17.20;99.90;;;;;;5052826;28;20460;-77
2023/08/01 01:18:11;;;;;;;3.13;2.23;;;17.20;99.90;;;;;;5053039;28;20447;-78
2023/08/01 01:20:39;;;;;;;2.60;1.70;;;17.30;99.90;;;;;;5053204;28;21011;-77
2023/08/01 01:23:08;;;;;;;2.07;1.50;;;17.20;99.90;;;;;;5053067;28;20962;-76
2023/08/01 01:25:37;;;;;;;1.90;1.50;;;17.30;99.90;;;;;;5051344;28;20466;-77
2023/08/01 01:28:05;;;;;;;2.27;1.37;;;17.30;99.90;;;;;;5051903;28;20488;-76
2023/08/01 01:30:34;;;;;;;3.23;2.10;;;17.30;99.90;;;;;;5052623;28;20479;-78
2023/08/01 01:33:01;;;;;;;2.57;1.67;;;17.30;99.90;;;;;;5051998;28;20465;-77
2023/08/01 01:35:28;;;;;;;4.00;1.90;;;17.30;99.90;;;;;;5052235;28;20968;-77
2023/08/01 01:37:58;;;;;;;2.57;1.90;;;17.20;99.90;;;;;;5052188;28;20446;-77
2023/08/01 01:40:25;;;;;;;2.27;1.27;;;17.30;99.90;;;;;;5052184;28;21062;-78
2023/08/01 01:42:52;;;;;;;2.90;2.13;;;17.30;99.90;;;;;;5052318;28;20963;-76
2023/08/01 01:45:18;;;;;;;3.27;2.67;;;17.30;99.90;;;;;;5051741;28;20459;-77
2023/08/01 01:47:45;;;;;;;3.30;3.00;;;17.20;99.90;;;;;;5052813;28;20482;-78
2023/08/01 01:50:12;;;;;;;2.20;1.80;;;17.20;99.90;;;;;;5052958;28;20458;-77
2023/08/01 01:52:39;;;;;;;2.67;1.80;;;17.20;99.90;;;;;;5054102;28;20457;-77
2023/08/01 01:55:08;;;;;;;2.80;1.83;;;17.10;99.90;;;;;;5052864;28;21049;-76
2023/08/01 01:57:36;;;;;;;2.47;1.37;;;17.10;99.90;;;;;;5053022;28;20456;-78
2023/08/01 02:00:03;;;;;;;2.90;1.40;;;17.10;99.90;;;;;;5053160;28;20458;-77
2023/08/01 02:02:29;;;;;;;2.40;1.50;;;17.10;99.90;;;;;;5053411;28;20458;-78
2023/08/01 02:04:56;;;;;;;2.40;1.67;;;17.10;99.90;;;;;;5055183;28;20461;-78
2023/08/01 02:07:23;;;;;;;2.40;1.77;;;17.00;99.90;;;;;;5056107;28;20546;-77
2023/08/01 02:09:50;;;;;;;2.50;2.27;;;16.90;99.90;;;;;;5058229;28;20442;-77
2023/08/01 02:12:18;;;;;;;2.50;1.80;;;16.80;99.90;;;;;;5055970;28;20483;-78
2023/08/01 02:14:45;;;;;;;2.40;1.80;;;16.80;99.90;;;;;;5056618;28;20960;-77
2023/08/01 02:17:12;;;;;;;2.63;2.17;;;16.80;99.90;;;;;;5055839;28;20515;-78
2023/08/01 02:19:38;;;;;;;3.43;2.93;;;16.80;99.90;;;;;;5056920;28;20450;-77
2023/08/01 02:22:06;;;;;;;3.27;2.70;;;16.80;99.90;;;;;;5056738;28;21192;-78
2023/08/01 02:24:32;;;;;;;5.23;3.13;;;16.80;99.90;;;;;;5057869;28;20454;-78
2023/08/01 02:26:59;;;;;;;4.70;4.00;;;16.80;99.90;;;;;;5060312;28;20452;-76
2023/08/01 02:29:27;;;;;;;5.53;4.53;;;16.70;99.90;;;;;;5067682;28;20498;-76
2023/08/01 02:31:54;;;;;;;7.17;4.33;;;16.80;99.90;;;;;;5056514;28;20491;-76
2023/08/01 02:34:21;;;;;;;6.30;5.00;;;16.80;99.90;;;;;;5056758;28;20459;-76
2023/08/01 02:36:48;;;;;;;9.50;4.23;;;16.80;99.90;;;;;;5055521;28;20966;-76
2023/08/01 02:39:15;;;;;;;6.60;4.20;;;16.80;99.90;;;;;;5056060;28;20547;-76
2023/08/01 02:41:41;;;;;;;4.63;3.80;;;16.80;99.90;;;;;;5055822;28;20482;-76
2023/08/01 02:44:08;;;;;;;3.83;3.43;;;16.70;99.90;;;;;;5053739;28;20988;-77
2023/08/01 02:46:36;;;;;;;5.30;3.40;;;16.70;99.90;;;;;;5055359;28;20459;-77
2023/08/01 02:49:03;;;;;;;5.03;3.20;;;16.70;99.90;;;;;;5056744;28;20512;-77
2023/08/01 02:51:30;;;;;;;4.90;4.17;;;16.60;99.90;;;;;;5062784;28;20485;-77
2023/08/01 02:53:57;;;;;;;5.63;4.37;;;16.60;99.90;;;;;;5063969;28;20985;-77
2023/08/01 02:56:23;;;;;;;3.47;3.17;;;16.60;99.90;;;;;;5042362;28;20466;-77
2023/08/01 02:58:51;;;;;;;4.90;4.17;;;16.70;99.90;;;;;;5036361;28;20454;-77
2023/08/01 03:01:18;;;;;;;6.93;4.90;;;16.70;99.90;;;;;;5042463;28;20473;-78
2023/08/01 03:03:46;;;;;;;6.97;4.40;;;16.70;99.90;;;;;;5057007;28;20453;-77
2023/08/01 03:06:14;;;;;;;6.57;4.47;;;16.70;99.90;;;;;;5054882;28;20457;-77
2023/08/01 03:08:40;;;;;;;4.93;4.27;;;16.70;99.90;;;;;;5056697;28;20539;-77
2023/08/01 03:11:07;;;;;;;6.50;5.33;;;16.70;99.90;;;;;;5056063;28;20474;-78
2023/08/01 03:13:34;;;;;;;5.30;4.80;;;16.70;99.90;;;;;;5056218;28;20455;-78
2023/08/01 03:16:01;;;;;;;10.50;5.30;;;16.70;99.90;;;;;;5056381;28;20446;-78
2023/08/01 03:18:27;;;;;;;7.00;5.50;;;16.70;99.90;;;;;;5055655;28;20455;-77
2023/08/01 03:20:56;;;;;;;7.50;6.23;;;16.80;99.90;;;;;;5052974;28;20539;-77
2023/08/01 03:23:22;;;;;;;6.10;5.37;;;16.80;99.90;;;;;;5056566;28;20439;-79
2023/08/01 03:25:49;;;;;;;8.40;7.50;;;16.80;99.90;;;;;;5055031;28;20951;-78
2023/08/01 03:28:16;;;;;;;8.80;7.57;;;16.80;99.90;;;;;;5055662;28;20573;-78
2023/08/01 03:33:16;;;;;;;10.20;8.70;;;16.80;99.90;;;;;;5066738;28;20484;-86
2023/08/01 03:35:43;;;;;;;11.70;8.97;;;16.80;99.90;;;;;;5071185;28;20445;-86
2023/08/01 03:38:11;;;;;;;10.40;9.30;;;16.80;99.90;;;;;;5072583;28;20807;-87
2023/08/01 03:40:38;;;;;;;12.30;9.63;;;16.90;99.90;;;;;;5074108;28;20448;-87
2023/08/01 03:43:06;;;;;;;12.60;10.63;;;16.80;99.90;;;;;;5056028;28;20480;-86
2023/08/01 03:45:33;;;;;;;13.07;11.10;;;16.80;99.90;;;;;;5069977;28;20461;-87
2023/08/01 03:48:00;;;;;;;15.40;12.37;;;16.80;99.90;;;;;;5073081;28;20460;-84
2023/08/01 03:50:27;;;;;;;13.57;11.37;;;16.80;99.90;;;;;;5073720;28;20454;-87
2023/08/01 03:52:54;;;;;;;15.80;12.90;;;16.80;99.90;;;;;;5076668;28;20460;-86
2023/08/01 03:55:22;;;;;;;15.23;12.27;;;16.80;99.90;;;;;;5080777;28;20507;-86
2023/08/01 03:57:48;;;;;;;17.93;14.40;;;16.80;99.90;;;;;;5079249;28;20461;-86
2023/08/01 04:00:18;;;;;;;16.43;13.10;;;16.80;99.90;;;;;;5078009;28;21115;-85
2023/08/01 04:02:45;;;;;;;20.17;15.60;;;16.80;99.90;;;;;;5061060;28;20985;-85
2023/08/01 04:05:12;;;;;;;18.73;16.63;;;16.70;99.90;;;;;;5066220;28;20465;-85
2023/08/01 04:07:39;;;;;;;18.60;15.10;;;16.70;99.90;;;;;;5078325;28;20505;-86
2023/08/01 04:10:07;;;;;;;17.63;15.73;;;16.70;99.90;;;;;;5058673;28;20690;-83
2023/08/01 04:12:36;;;;;;;17.27;15.30;;;16.60;99.90;;;;;;5059367;28;20559;-85
2023/08/01 04:15:03;;;;;;;18.23;15.27;;;16.70;99.90;;;;;;5060046;28;20884;-85
2023/08/01 04:17:30;;;;;;;18.83;15.47;;;16.60;99.90;;;;;;5060375;28;20496;-84
2023/08/01 04:19:57;;;;;;;18.30;15.77;;;16.70;99.90;;;;;;5066153;28;20447;-84
2023/08/01 04:22:25;;;;;;;22.17;15.90;;;16.70;99.90;;;;;;5067117;28;20844;-84
2023/08/01 04:24:52;;;;;;;16.10;13.77;;;16.70;99.90;;;;;;5058645;28;20462;-84
2023/08/01 04:27:19;;;;;;;15.40;13.50;;;16.70;99.90;;;;;;5056173;28;20550;-84
2023/08/01 04:29:48;;;;;;;19.10;15.10;;;16.70;99.90;;;;;;5056543;28;20546;-84
2023/08/01 04:32:15;;;;;;;18.30;14.57;;;16.60;99.90;;;;;;5057038;28;20477;-83
2023/08/01 04:34:41;;;;;;;17.17;12.97;;;16.60;99.90;;;;;;5070022;28;20902;-84
2023/08/01 04:37:08;;;;;;;15.33;11.63;;;16.60;99.90;;;;;;5056183;28;20458;-83
2023/08/01 04:39:35;;;;;;;12.17;10.17;;;16.60;99.90;;;;;;5054842;28;21066;-82
2023/08/01 04:42:02;;;;;;;12.47;10.57;;;16.50;99.90;;;;;;5056847;28;20475;-82
2023/08/01 04:44:29;;;;;;;13.80;10.90;;;16.50;99.90;;;;;;5057603;28;20547;-81
2023/08/01 04:46:57;;;;;;;18.80;11.03;;;16.50;99.90;;;;;;5056399;28;20458;-83
2023/08/01 04:49:25;;;;;;;16.77;11.17;;;16.50;99.90;;;;;;5056206;28;20904;-83
2023/08/01 04:51:52;;;;;;;14.23;10.93;;;16.50;99.90;;;;;;5056486;28;20474;-83
2023/08/01 04:54:19;;;;;;;16.17;10.80;;;16.50;99.90;;;;;;5056582;28;20980;-82
2023/08/01 04:56:45;;;;;;;17.10;10.97;;;16.40;99.90;;;;;;5062710;28;20622;-85
2023/08/01 04:59:12;;;;;;;12.83;11.23;;;16.40;99.90;;;;;;5077755;28;20447;-86
2023/08/01 05:01:39;;;;;;;14.90;10.93;;;16.40;99.90;;;;;;5084163;28;20468;-84
2023/08/01 05:04:08;;;;;;;15.80;11.07;;;16.50;99.90;;;;;;5080589;28;20450;-84
2023/08/01 05:06:35;;;;;;;15.40;12.20;;;16.50;99.90;;;;;;5068905;28;20506;-86
2023/08/01 05:09:02;;;;;;;16.60;12.10;;;16.50;99.90;;;;;;5091374;28;20811;-84
2023/08/01 05:11:28;;;;;;;18.43;12.00;;;16.50;99.90;;;;;;5074305;28;20536;-85
2023/08/01 05:13:58;;;;;;;12.50;10.50;;;16.50;99.90;;;;;;5063659;28;20450;-86
2023/08/01 05:16:25;;;;;;;15.53;11.90;;;16.60;99.90;;;;;;5064346;28;20544;-85
2023/08/01 05:18:52;;;;;;;14.80;10.77;;;16.50;99.90;;;;;;5059815;28;20451;-85
2023/08/01 05:21:21;;;;;;;13.50;10.57;;;16.50;99.90;;;;;;5061570;28;20476;-85
2023/08/01 05:23:48;;;;;;;16.77;12.50;;;16.50;99.90;;;;;;5058602;28;20447;-85
2023/08/01 05:26:15;;;;;;;14.10;11.80;;;16.40;99.90;;;;;;5073485;28;20459;-83
2023/08/01 05:28:42;;;;;;;20.50;13.10;;;16.40;99.90;;;;;;5076208;28;20484;-85
2023/08/01 05:31:09;;;;;;;16.43;12.00;;;16.40;99.90;;;;;;5055274;28;20467;-86
2023/08/01 05:33:36;;;;;;;17.50;12.97;;;16.50;99.90;;;;;;5066853;28;20477;-86
2023/08/01 05:36:03;;;;;;;15.37;11.23;;;16.50;99.90;;;;;;5070736;28;20451;-85
2023/08/01 05:38:31;;;;;;;18.03;11.70;;;16.50;99.90;;;;;;5067408;28;20452;-86
2023/08/01 05:40:58;;;;;;;19.30;12.30;;;16.50;99.90;;;;;;5069736;28;20459;-87
2023/08/01 05:43:25;;;;;;;19.33;14.60;;;16.60;99.90;;;;;;5079964;28;20974;-85
2023/08/01 05:45:52;;;;;;;15.77;12.00;;;16.60;99.90;;;;;;5068449;28;20462;-87
2023/08/01 05:48:19;;;;;;;19.67;13.00;;;16.60;99.90;;;;;;5039096;28;20728;-84
2023/08/01 05:50:46;;;;;;;17.23;12.47;;;16.70;99.90;;;;;;5080088;28;20494;-85
2023/08/01 05:53:12;;;;;;;18.33;13.07;;;16.70;99.90;;;;;;5081657;28;20546;-85
2023/08/01 05:55:41;;;;;;;16.67;13.63;;;16.70;99.90;;;;;;5078188;28;20553;-85
2023/08/01 05:58:08;;;;;;;16.53;12.87;;;16.70;99.90;;;;;;5076619;28;20464;-85
2023/08/01 06:00:35;;;;;;;17.30;14.00;;;16.70;99.90;;;;;;5069281;28;20463;-86
2023/08/01 06:03:01;;;;;;;17.67;14.17;;;16.70;99.90;;;;;;5063705;28;20470;-84
2023/08/01 06:05:28;;;;;;;18.67;15.70;;;16.70;99.90;;;;;;5072790;28;20484;-82
2023/08/01 06:07:55;;;;;;;15.93;14.07;;;16.80;99.90;;;;;;5079449;28;20830;-85
2023/08/01 06:10:24;;;;;;;19.50;15.23;;;16.80;99.90;;;;;;5079793;28;20485;-85
2023/08/01 06:12:52;;;;;;;17.73;14.90;;;16.80;99.90;;;;;;5068363;28;20835;-84
2023/08/01 06:15:19;;;;;;;17.63;15.10;;;16.80;99.90;;;;;;5067382;28;20462;-85
2023/08/01 06:17:46;;;;;;;25.57;14.00;;;16.70;99.90;;;;;;5078759;28;20493;-82
2023/08/01 06:20:13;;;;;;;22.03;15.67;;;16.70;99.90;;;;;;5069206;28;20459;-86
2023/08/01 06:22:39;;;;;;;18.37;15.43;;;16.70;99.90;;;;;;5080982;28;20480;-87
2023/08/01 06:25:07;;;;;;;18.17;15.00;;;16.80;99.90;;;;;;5079255;28;20499;-83
2023/08/01 06:27:34;;;;;;;24.07;15.70;;;16.90;99.90;;;;;;5073511;28;20531;-86
2023/08/01 06:30:02;;;;;;;17.70;15.80;;;16.90;99.90;;;;;;5060502;28;20480;-85
2023/08/01 06:32:29;;;;;;;19.10;13.87;;;16.90;99.90;;;;;;5056111;28;20483;-86
2023/08/01 06:34:56;;;;;;;24.40;15.27;;;16.90;99.90;;;;;;5056580;28;20459;-87
2023/08/01 06:37:23;;;;;;;16.90;14.60;;;16.90;99.90;;;;;;5057142;28;20541;-87
2023/08/01 06:39:50;;;;;;;20.17;15.43;;;17.00;99.90;;;;;;5070610;28;20459;-86
2023/08/01 06:42:18;;;;;;;19.13;14.30;;;17.00;99.90;;;;;;5074802;28;20513;-88
2023/08/01 06:44:47;;;;;;;21.10;15.80;;;17.00;99.90;;;;;;5074908;28;20480;-85
2023/08/01 06:47:15;;;;;;;19.50;15.23;;;17.10;99.90;;;;;;5070931;28;20907;-85
2023/08/01 06:49:42;;;;;;;20.43;16.63;;;17.10;99.90;;;;;;5066179;28;20513;-88
2023/08/01 06:52:09;;;;;;;22.13;16.20;;;17.10;99.90;;;;;;5087663;28;20549;-85
2023/08/01 06:54:36;;;;;;;19.23;14.70;;;17.10;99.90;;;;;;5078123;28;20477;-83
2023/08/01 06:57:02;;;;;;;16.27;13.07;;;17.10;99.90;;;;;;5077721;28;20465;-86
2023/08/01 06:59:30;;;;;;;17.37;14.17;;;17.20;99.90;;;;;;5073768;28;20554;-86
2023/08/01 07:01:57;;;;;;;18.50;13.70;;;17.20;99.90;;;;;;5080408;28;20495;-85
2023/08/01 07:04:25;;;;;;;17.30;14.90;;;17.20;99.90;;;;;;5070766;28;20505;-86
2023/08/01 07:06:52;;;;;;;19.80;16.10;;;17.20;99.90;;;;;;5074000;28;20445;-87
2023/08/01 07:09:19;;;;;;;20.10;15.60;;;17.10;99.90;;;;;;5074676;28;20485;-84
2023/08/01 07:11:45;;;;;;;27.00;17.00;;;17.20;99.90;;;;;;5070163;28;21090;-86
2023/08/01 07:14:12;;;;;;;18.70;16.37;;;17.20;99.90;;;;;;5063735;28;20454;-86
2023/08/01 07:16:39;;;;;;;21.53;16.93;;;17.20;99.90;;;;;;5068713;28;20454;-86
2023/08/01 07:19:06;;;;;;;19.40;15.37;;;17.20;99.90;;;;;;5067020;28;20519;-85
2023/08/01 07:21:35;;;;;;;16.17;14.50;;;17.30;99.90;;;;;;5068219;28;20479;-86
2023/08/01 07:24:02;;;;;;;17.70;14.90;;;17.30;99.90;;;;;;5072223;28;20853;-86
2023/08/01 07:26:29;;;;;;;16.63;13.77;;;17.40;99.90;;;;;;5068182;28;20454;-83
2023/08/01 07:28:56;;;;;;;19.10;14.83;;;17.40;99.90;;;;;;5076153;28;20465;-85
2023/08/01 07:31:26;;;;;;;17.37;14.27;;;17.40;99.90;;;;;;5071370;28;21022;-84
2023/08/01 07:34:02;;;;;;;18.07;13.67;;;17.50;99.90;;;;;;5074972;28;20995;-85
2023/08/01 07:36:29;;;;;;;20.37;13.67;;;17.50;99.90;;;;;;5072000;28;20526;-85
2023/08/01 07:38:57;;;;;;;16.90;14.03;;;17.50;99.90;;;;;;5073761;28;20522;-84
2023/08/01 07:41:27;;;;;;;15.50;11.37;;;17.50;99.90;;;;;;5070175;28;21057;-86
2023/08/01 07:43:54;;;;;;;13.67;12.10;;;17.60;99.90;;;;;;5069642;28;20465;-84
2023/08/01 07:46:21;;;;;;;16.33;12.20;;;17.70;99.90;;;;;;5066608;28;20534;-84
2023/08/01 07:48:48;;;;;;;16.30;12.03;;;17.70;99.90;;;;;;5068851;28;20534;-85
2023/08/01 07:51:15;;;;;;;15.87;10.80;;;17.70;99.90;;;;;;5070787;28;20529;-86
2023/08/01 07:53:43;;;;;;;11.53;10.33;;;17.80;99.90;;;;;;5068530;28;20461;-86
2023/08/01 07:56:11;;;;;;;14.23;11.27;;;17.90;99.90;;;;;;5063571;28;20509;-84
2023/08/01 07:58:38;;;;;;;12.30;10.20;;;18.10;99.90;;;;;;5063531;28;20955;-85
2023/08/01 08:01:05;;;;;;;12.93;9.97;;;18.00;99.90;;;;;;5063448;28;20472;-86
2023/08/01 08:03:32;;;;;;;12.40;10.53;;;18.00;99.90;;;;;;5065169;28;20452;-86
2023/08/01 08:05:59;;;;;;;13.37;8.73;;;18.10;99.90;;;;;;5062003;28;20462;-84
2023/08/01 08:08:26;;;;;;;17.13;9.47;;;18.10;99.90;;;;;;5068843;28;20539;-85
2023/08/01 08:10:53;;;;;;;16.23;9.37;;;18.10;99.90;;;;;;5074562;28;20496;-86
2023/08/01 08:13:21;;;;;;;11.63;10.53;;;18.30;99.90;;;;;;5056096;28;20448;-86
2023/08/01 08:15:48;;;;;;;12.73;8.80;;;18.20;99.90;;;;;;5063695;28;20447;-87
2023/08/01 08:18:15;;;;;;;12.17;9.10;;;18.20;99.90;;;;;;5074664;28;20465;-86
2023/08/01 08:20:44;;;;;;;14.00;9.17;;;18.10;99.90;;;;;;5074168;28;20473;-85
2023/08/01 08:23:10;;;;;;;16.13;10.70;;;18.10;99.90;;;;;;5067098;28;20493;-86
2023/08/01 08:25:37;;;;;;;16.80;9.03;;;18.00;99.90;;;;;;5074046;28;20482;-87
2023/08/01 08:28:04;;;;;;;17.43;11.90;;;18.10;99.90;;;;;;5070904;28;20838;-84
2023/08/01 08:30:33;;;;;;;12.73;10.40;;;18.20;99.90;;;;;;5071935;28;20479;-86
2023/08/01 08:33:04;;;;;;;11.60;9.20;;;18.30;99.90;;;;;;5054660;28;20485;-85
2023/08/01 08:35:30;;;;;;;14.30;9.80;;;18.50;99.90;;;;;;5069935;28;20473;-86
2023/08/01 08:37:59;;;;;;;12.67;7.73;;;18.60;99.90;;;;;;5057586;28;20460;-86
2023/08/01 08:40:26;;;;;;;9.53;7.93;;;18.70;99.90;;;;;;5067704;28;20475;-86
2023/08/01 08:42:54;;;;;;;13.40;9.47;;;18.70;99.90;;;;;;5057919;28;20566;-85
2023/08/01 08:45:22;;;;;;;9.53;7.77;;;18.70;99.90;;;;;;5062940;28;21112;-86
2023/08/01 08:47:56;;;;;;;17.07;8.30;;;18.60;99.90;;;;;;5062349;28;20539;-86
2023/08/01 08:50:25;;;;;;;12.60;8.50;;;18.60;99.90;;;;;;5069285;28;20516;-84
2023/08/01 08:52:53;;;;;;;13.90;9.10;;;18.60;99.90;;;;;;5075358;28;20486;-85
2023/08/01 08:55:22;;;;;;;13.93;8.13;;;18.50;99.90;;;;;;5067293;28;20486;-84
2023/08/01 08:57:50;;;;;;;10.33;7.47;;;18.50;99.90;;;;;;5058919;28;21034;-85
2023/08/01 09:00:18;;;;;;;9.80;8.57;;;18.40;99.90;;;;;;5061806;28;20456;-84
2023/08/01 09:02:45;;;;;;;10.30;7.77;;;18.40;99.90;;;;;;5064254;28;20553;-83
2023/08/01 09:05:13;;;;;;;12.03;9.70;;;18.30;99.90;;;;;;5068993;28;20453;-81
2023/08/01 09:07:43;;;;;;;11.30;8.20;;;18.30;99.90;;;;;;5063018;28;20531;-81
2023/08/01 09:10:10;;;;;;;11.63;9.57;;;18.20;99.90;;;;;;5065183;28;20490;-85
2023/08/01 09:12:38;;;;;;;11.63;8.00;;;18.10;99.90;;;;;;5064228;28;20485;-85
2023/08/01 09:15:05;;;;;;;12.73;8.33;;;18.20;99.90;;;;;;5067544;28;20951;-85
2023/08/01 09:17:32;;;;;;;11.63;8.87;;;18.40;99.90;;;;;;5068820;28;20457;-85
2023/08/01 09:20:05;;;;;;;14.60;7.80;;;18.70;99.90;;;;;;5067058;28;20528;-84
2023/08/01 09:22:43;;;;;;;14.43;6.70;;;19.00;99.90;;;;;;5070078;28;20520;-84
2023/08/01 09:25:10;;;;;;;12.07;7.10;;;19.40;99.90;;;;;;5078131;28;20487;-85
2023/08/01 09:27:36;;;;;;;9.53;5.57;;;19.70;99.90;;;;;;5073650;28;20489;-81
2023/08/01 09:30:08;;;;;;;8.70;6.07;;;19.80;99.90;;;;;;5076821;28;20490;-84
2023/08/01 09:32:35;;;;;;;6.47;5.50;;;19.70;99.90;;;;;;5084553;22;20503;-79
2023/08/01 09:35:03;;;;;;;6.30;5.10;;;19.70;99.90;;;;;;5073766;28;20986;-78
2023/08/01 09:37:40;;;;;;;7.60;5.63;;;19.90;99.90;;;;;;5071927;28;20550;-78
2023/08/01 09:40:08;;;;;;;6.90;5.70;;;20.10;99.90;;;;;;5067324;28;20800;-79
2023/08/01 09:42:39;;;;;;;6.57;4.83;;;20.30;99.90;;;;;;5073213;28;20481;-79
2023/08/01 09:45:12;;;;;;;14.63;6.30;;;20.30;99.90;;;;;;5073966;28;20462;-78
2023/08/01 09:47:39;;;;;;;5.87;5.30;;;20.40;99.90;;;;;;5077249;28;20510;-79
2023/08/01 09:50:06;;;;;;;7.43;4.50;;;20.10;99.90;;;;;;5076624;28;20489;-80
2023/08/01 09:52:34;;;;;;;6.17;4.33;;;20.00;81.50;;;;;;5077461;28;20534;-82
2023/08/01 09:55:02;;;;;;;9.00;5.07;;;20.00;99.90;;;;;;5076815;28;20459;-81
2023/08/01 09:57:34;;;;;;;6.60;5.43;;;19.80;99.90;;;;;;5075928;28;20450;-80
2023/08/01 10:00:01;;;;;;;7.90;5.13;;;20.00;99.90;;;;;;5075001;28;20459;-80
2023/08/01 10:02:31;;;;;;;4.80;4.30;;;20.10;99.90;;;;;;5072900;28;20477;-79
2023/08/01 10:05:01;;;;;;;6.60;5.00;;;20.10;12.30;;;;;;5074961;28;20473;-81
2023/08/01 10:07:31;;;;;;;5.53;4.43;;;20.10;97.20;;;;;;5076469;28;20460;-79
2023/08/01 10:10:00;;;;;;;8.43;4.67;;;20.10;20.60;;;;;;5058112;28;20494;-79
2023/08/01 10:12:28;;;;;;;5.20;3.70;;;20.20;88.50;;;;;;5076180;28;20471;-79
2023/08/01 10:14:56;;;;;;;5.13;4.63;;;20.40;66.80;;;;;;5079089;28;20439;-80
2023/08/01 10:17:23;;;;;;;7.27;4.60;;;20.50;99.90;;;;;;5079081;28;20626;-81
2023/08/01 10:19:51;;;;;;;6.80;4.27;;;20.50;99.90;;;;;;5079270;28;20459;-80
2023/08/01 10:22:19;;;;;;;5.20;3.70;;;20.50;99.90;;;;;;5079296;28;20474;-80
2023/08/01 10:24:47;;;;;;;5.13;4.00;;;20.30;99.90;;;;;;5078668;28;20534;-80
2023/08/01 10:27:15;;;;;;;5.50;4.10;;;20.00;99.90;;;;;;5076152;28;20462;-80
2023/08/01 10:29:43;;;;;;;8.83;4.60;;;19.70;99.90;;;;;;5079243;28;20451;-79
2023/08/01 10:32:11;;;;;;;5.60;4.50;;;19.30;99.90;;;;;;5077984;28;20489;-80
2023/08/01 10:34:38;;;;;;;9.10;5.77;;;19.00;99.90;;;;;;5078143;28;20481;-80
2023/08/01 10:37:05;;;;;;;10.10;5.53;;;18.80;99.90;;;;;;5076580;28;20455;-79
2023/08/01 10:39:32;;;;;;;6.67;5.50;;;18.70;99.90;;;;;;5078451;28;20891;-80
2023/08/01 10:42:00;;;;;;;8.90;6.37;;;18.60;99.90;;;;;;5077919;28;20479;-80
2023/08/01 10:44:28;;;;;;;7.90;6.03;;;18.60;99.90;;;;;;5074318;28;21053;-79
2023/08/01 10:46:58;;;;;;;11.13;7.77;;;18.80;99.90;;;;;;5073247;28;21033;-80
2023/08/01 10:49:36;;;;;;;10.53;7.47;;;18.90;99.90;;;;;;5077523;28;20446;-80
2023/08/01 10:52:04;;;;;;;6.87;5.60;;;18.90;99.90;;;;;;5077542;28;20482;-80
2023/08/01 10:54:32;;;;;;;9.40;6.87;;;18.90;99.90;;;;;;5079704;28;20822;-79
2023/08/01 10:56:59;;;;;;;8.70;6.80;;;18.90;99.90;;;;;;5079518;28;20466;-79
2023/08/01 10:59:26;;;;;;;10.70;7.93;;;18.90;99.90;;;;;;5062450;28;20474;-80
2023/08/01 11:01:54;;;;;;;8.77;7.80;;;19.10;99.90;;;;;;5074080;28;20477;-80
2023/08/01 11:04:24;;;;;;;11.93;8.60;;;19.40;99.90;;;;;;5076310;28;21208;-80
2023/08/01 11:06:52;;;;;;;9.00;6.60;;;19.60;99.90;;;;;;5075313;28;20490;-79
2023/08/01 11:09:20;;;;;;;7.10;5.97;;;19.50;99.90;;;;;;5076287;28;20451;-78
2023/08/01 11:11:51;;;;;;;10.63;6.50;;;19.20;99.90;;;;;;5076669;28;20685;-79
2023/08/01 11:14:20;;;;;;;8.10;7.23;;;18.90;99.90;;;;;;5081838;28;20454;-79
2023/08/01 11:16:47;;;;;;;10.73;6.40;;;18.60;99.90;;;;;;5076763;28;20546;-78
2023/08/01 11:19:26;;;;;;;9.90;5.07;;;18.30;99.90;;;;;;5074320;28;20550;-80
2023/08/01 11:21:56;;;;;;;7.30;4.50;;;18.00;99.90;;;;;;5078793;28;20485;-78
2023/08/01 11:24:23;;;;;;;6.53;5.60;;;17.80;99.90;;;;;;5076419;28;20459;-79
2023/08/01 11:26:52;;;;;;;7.83;5.57;;;17.60;99.90;;;;;;5075666;28;20513;-79
2023/08/01 11:29:20;;;;;;;6.03;5.13;;;17.50;99.90;;;;;;5078805;28;20545;-78
2023/08/01 11:31:54;;;;;;;9.77;5.37;;;17.50;99.90;;;;;;5078186;28;20712;-79
2023/08/01 11:34:23;;;;;;;7.43;6.73;;;17.40;99.90;;;;;;5077898;28;20449;-78
2023/08/01 11:36:50;;;;;;;11.37;5.83;;;17.40;99.90;;;;;;5075578;28;20838;-78
2023/08/01 11:39:18;;;;;;;10.77;6.70;;;17.40;99.90;;;;;;5075831;28;20562;-79
2023/08/01 11:41:45;;;;;;;8.73;7.00;;;17.40;99.90;;;;;;5077610;28;20478;-79
2023/08/01 11:44:12;;;;;;;7.17;6.47;;;17.50;99.90;;;;;;5076089;28;20460;-79
2023/08/01 11:46:41;;;;;;;9.77;6.80;;;17.60;99.90;;;;;;5077366;28;20454;-79
2023/08/01 11:49:08;;;;;;;8.47;7.40;;;17.70;99.90;;;;;;5080785;28;20525;-79
2023/08/01 11:51:42;;;;;;;7.83;7.00;;;18.10;99.90;;;;;;5074278;28;20511;-78
2023/08/01 11:54:11;;;;;;;6.90;5.47;;;19.00;99.90;;;;;;5075146;28;20465;-79
2023/08/01 11:56:38;;;;;;;7.70;6.40;;;19.60;99.90;;;;;;5072627;28;20505;-80
2023/08/01 11:59:15;;;;;;;7.90;5.37;;;20.20;99.90;;;;;;5074633;28;21794;-79
2023/08/01 12:01:50;;;;;;;5.63;3.53;;;20.90;99.90;;;;;;5134460;27;21146;-79
2023/08/01 12:04:25;;;;;;;5.33;2.33;;;21.10;99.90;;;;;;5126583;27;20464;-79
2023/08/01 12:06:52;;;;;;;6.33;2.37;;;20.40;99.90;;;;;;5110321;28;20560;-78
2023/08/01 12:09:21;;;;;;;5.03;2.90;;;20.00;99.90;;;;;;5111388;28;20471;-80
2023/08/01 12:11:47;;;;;;;6.97;2.87;;;19.70;99.90;;;;;;5118032;28;20570;-80
2023/08/01 12:14:15;;;;;;;6.23;3.00;;;19.70;99.90;;;;;;5110219;28;20446;-79
2023/08/01 12:16:44;;;;;;;4.30;2.53;;;20.10;99.90;;;;;;5112895;28;20971;-80
2023/08/01 12:19:18;;;;;;;4.13;2.87;;;20.50;99.90;;;;;;5131564;27;20456;-79
2023/08/01 12:21:45;;;;;;;4.17;2.57;;;21.00;99.90;;;;;;5131374;27;20518;-81
2023/08/01 12:24:12;;;;;;;3.77;2.40;;;21.00;99.90;;;;;;5115710;27;20445;-80
2023/08/01 12:26:39;;;;;;;5.47;4.07;;;20.70;99.90;;;;;;5129520;27;20531;-80
2023/08/01 12:29:07;;;;;;;3.57;2.70;;;20.50;99.90;;;;;;5128764;27;20451;-80
2023/08/01 12:31:34;;;;;;;5.80;3.47;;;20.30;99.90;;;;;;5130550;27;20838;-79
2023/08/01 12:34:01;;;;;;;6.47;3.10;;;20.10;99.90;;;;;;5124019;27;20448;-81
2023/08/01 12:36:29;;;;;;;5.67;2.60;;;19.90;99.90;;;;;;5131442;27;20449;-81
2023/08/01 12:38:55;;;;;;;6.80;3.80;;;19.70;99.90;;;;;;5115416;27;20457;-81
2023/08/01 12:41:22;;;;;;;4.30;3.27;;;19.50;99.90;;;;;;5113933;28;20489;-80
2023/08/01 12:43:49;;;;;;;16.00;4.07;;;19.40;99.90;;;;;;5116869;28;21271;-80